Terminal Aerodrome Forecast
Issued by NWS

Home | Current Version | Previous Version | Text Only | Print | Product List | Glossary On
Versions: 1 2 3 4 5 6 7 8 9 10 11 12 13 14 15 16 17
000
FTUS44 KLUB 301100
TAFCDS
TAF
KCDS 301123Z 3012/3112 12005KT P6SM -RA FEW070 BKN110
     FM301500 18013KT P6SM SCT050 BKN100 PROB30 3021/3103 04012KT
      5SM -TSRA OVC050CB
     FM310300 03011KT 6SM BR OVC020=

USA.gov is the U.S. government's official web portal to all federal, state and local government web resources and services.